createdAt,value
2022-12-18T00:01:25.277Z,37.05
2022-12-18T00:03:53.894Z,41.85
2022-12-18T00:06:21.435Z,43.08
2022-12-18T00:08:48.530Z,45.58
2022-12-18T00:11:17.725Z,44.08
2022-12-18T00:13:44.678Z,43.60
2022-12-18T00:16:14.203Z,42.72
2022-12-18T00:18:42.052Z,55.67
2022-12-18T00:21:11.208Z,44.10
2022-12-18T00:23:38.782Z,38.78
2022-12-18T00:26:08.833Z,48.55
2022-12-18T00:28:35.563Z,45.95
2022-12-18T00:31:07.860Z,47.95
2022-12-18T00:33:35.365Z,50.85
2022-12-18T00:36:06.798Z,47.13
2022-12-18T00:38:33.853Z,49.75
2022-12-18T00:41:00.742Z,50.00
2022-12-18T00:43:27.356Z,44.65
2022-12-18T00:45:54.839Z,49.95
2022-12-18T00:48:21.652Z,48.97
2022-12-18T00:50:51.850Z,40.70
2022-12-18T00:53:19.040Z,46.72
2022-12-18T00:55:46.178Z,40.80
2022-12-18T00:58:14.822Z,51.20
2022-12-18T01:00:41.432Z,36.95
2022-12-18T01:03:08.079Z,43.08
2022-12-18T01:05:34.925Z,53.42
2022-12-18T01:08:01.791Z,47.33
2022-12-18T01:10:28.344Z,49.92
2022-12-18T01:12:54.956Z,44.90
2022-12-18T01:15:21.524Z,38.05
2022-12-18T01:17:48.296Z,49.70
2022-12-18T01:20:15.137Z,55.13
2022-12-18T01:22:41.692Z,47.53
2022-12-18T01:25:08.994Z,47.35
2022-12-18T01:27:35.587Z,44.13
2022-12-18T01:30:02.227Z,57.05
2022-12-18T01:32:31.579Z,50.72
2022-12-18T01:34:58.170Z,45.45
2022-12-18T01:37:25.469Z,45.15
2022-12-18T01:39:55.354Z,45.97
2022-12-18T01:42:22.587Z,51.40
2022-12-18T01:45:14.882Z,41.53
2022-12-18T01:48:00.564Z,47.35
2022-12-18T01:50:42.935Z,41.00
2022-12-18T01:53:21.900Z,49.33
2022-12-18T01:55:53.660Z,43.55
2022-12-18T01:58:24.243Z,40.58
2022-12-18T02:00:50.727Z,42.42
2022-12-18T02:03:17.273Z,37.58
2022-12-18T02:06:08.151Z,48.15
2022-12-18T02:08:48.208Z,39.55
2022-12-18T02:11:49.739Z,49.08
2022-12-18T02:14:30.328Z,44.05
2022-12-18T02:17:07.160Z,40.38
2022-12-18T02:19:58.032Z,42.13
2022-12-18T02:22:50.721Z,38.80
2022-12-18T02:25:55.293Z,45.97
2022-12-18T02:28:27.666Z,38.78
2022-12-18T02:30:57.448Z,41.88
2022-12-18T02:33:26.626Z,43.92
2022-12-18T02:35:54.865Z,44.45
2022-12-18T02:38:22.103Z,42.53
2022-12-18T02:40:51.378Z,40.40
2022-12-18T02:43:17.940Z,41.53
2022-12-18T02:45:57.445Z,37.17
2022-12-18T02:48:27.680Z,37.53
2022-12-18T02:51:19.319Z,41.30
2022-12-18T02:54:16.091Z,40.17
2022-12-18T02:56:50.109Z,39.78
2022-12-18T02:59:25.018Z,36.65
2022-12-18T03:02:02.982Z,38.85
2022-12-18T03:04:40.195Z,39.65
2022-12-18T03:07:14.026Z,37.53
2022-12-18T03:09:45.748Z,39.22
2022-12-18T03:12:27.878Z,38.40
2022-12-18T03:15:04.944Z,39.40
2022-12-18T03:17:34.500Z,41.15
2022-12-18T03:20:08.487Z,41.78
2022-12-18T03:22:38.141Z,34.85
2022-12-18T03:25:09.135Z,39.95
2022-12-18T03:27:45.366Z,38.17
2022-12-18T03:30:14.526Z,41.42
2022-12-18T03:32:50.019Z,37.03
2022-12-18T03:35:22.546Z,34.60
2022-12-18T03:37:49.491Z,43.45
2022-12-18T03:40:16.317Z,38.08
2022-12-18T03:43:00.998Z,37.13
2022-12-18T03:45:43.783Z,31.88
2022-12-18T03:48:20.118Z,41.72
2022-12-18T03:51:01.274Z,31.77
2022-12-18T03:53:51.504Z,35.90
2022-12-18T03:56:20.227Z,37.38
2022-12-18T03:58:48.116Z,33.47
2022-12-18T04:01:17.619Z,35.65
2022-12-18T04:03:46.898Z,34.13
2022-12-18T04:06:15.147Z,38.83
2022-12-18T04:08:42.504Z,34.65
2022-12-18T04:11:09.203Z,36.20
2022-12-18T04:13:39.223Z,35.13
2022-12-18T04:16:06.318Z,38.20
2022-12-18T04:18:33.202Z,33.83
2022-12-18T04:20:59.706Z,28.98
2022-12-18T04:23:26.409Z,26.10
2022-12-18T04:25:53.046Z,31.10
2022-12-18T04:28:19.622Z,35.63
2022-12-18T04:30:49.610Z,36.30
2022-12-18T04:33:16.255Z,28.58
2022-12-18T04:35:43.476Z,30.85
2022-12-18T04:38:13.509Z,28.08
2022-12-18T04:40:40.146Z,30.35
2022-12-18T04:43:08.354Z,34.17
2022-12-18T04:45:35.149Z,33.03
2022-12-18T04:48:03.396Z,27.75
2022-12-18T04:50:30.748Z,31.33
2022-12-18T04:52:57.561Z,22.23
2022-12-18T04:55:23.939Z,25.98
2022-12-18T04:57:50.410Z,26.70
2022-12-18T05:00:17.094Z,24.45
2022-12-18T05:02:43.773Z,30.70
2022-12-18T05:05:10.464Z,25.90
2022-12-18T05:07:37.295Z,21.25
2022-12-18T05:10:04.487Z,25.77
2022-12-18T05:12:32.718Z,28.02
2022-12-18T05:14:59.390Z,23.25
2022-12-18T05:17:26.250Z,25.73
2022-12-18T05:19:52.690Z,24.23
2022-12-18T05:22:19.171Z,28.13
2022-12-18T05:24:45.565Z,27.73
2022-12-18T05:27:12.324Z,24.85
2022-12-18T05:29:38.752Z,22.75
2022-12-18T05:32:05.277Z,25.10
2022-12-18T05:34:33.268Z,19.50
2022-12-18T05:36:59.673Z,22.08
2022-12-18T05:39:26.252Z,19.10
2022-12-18T05:41:52.746Z,21.63
2022-12-18T05:44:19.319Z,23.67
2022-12-18T05:46:45.850Z,24.25
2022-12-18T05:49:15.296Z,24.02
2022-12-18T05:51:41.727Z,24.67
2022-12-18T05:54:09.034Z,26.45
2022-12-18T05:56:35.508Z,24.08
2022-12-18T05:59:02.287Z,22.27
2022-12-18T06:01:29.503Z,22.02
2022-12-18T06:03:56.152Z,21.52
2022-12-18T06:06:25.518Z,23.13
2022-12-18T06:08:52.983Z,21.48
2022-12-18T06:11:22.360Z,24.20
2022-12-18T06:13:57.920Z,18.98
2022-12-18T06:16:25.512Z,22.67
2022-12-18T06:18:52.528Z,22.25
2022-12-18T06:21:18.903Z,18.83
2022-12-18T06:23:45.292Z,20.30
2022-12-18T06:26:13.250Z,22.80
2022-12-18T06:28:40.486Z,21.50
2022-12-18T06:31:08.094Z,21.65
2022-12-18T06:33:35.483Z,22.02
2022-12-18T06:36:04.420Z,17.60
2022-12-18T06:38:32.558Z,17.75
2022-12-18T06:40:58.927Z,24.15
2022-12-18T06:43:25.554Z,16.38
2022-12-18T06:45:53.873Z,17.98
2022-12-18T06:48:21.006Z,20.00
2022-12-18T06:50:47.814Z,20.05
2022-12-18T06:53:17.107Z,18.52
2022-12-18T06:55:44.152Z,22.85
2022-12-18T06:58:10.848Z,23.60
2022-12-18T07:00:38.042Z,23.90
2022-12-18T07:03:04.770Z,19.17
2022-12-18T07:05:31.619Z,18.90
2022-12-18T07:07:59.254Z,21.45
2022-12-18T07:10:25.764Z,19.83
2022-12-18T07:12:52.216Z,23.63
2022-12-18T07:15:18.670Z,20.92
2022-12-18T07:17:45.219Z,17.50
2022-12-18T07:20:11.983Z,21.70
2022-12-18T07:22:38.447Z,20.02
2022-12-18T07:25:05.487Z,22.23
2022-12-18T07:27:32.008Z,19.35
2022-12-18T07:29:58.557Z,19.35
2022-12-18T07:32:24.906Z,18.88
2022-12-18T07:34:51.268Z,22.05
2022-12-18T07:37:17.695Z,21.23
2022-12-18T07:39:44.141Z,23.58
2022-12-18T07:42:29.008Z,22.42
2022-12-18T07:44:55.440Z,26.15
2022-12-18T07:47:22.132Z,21.48
2022-12-18T07:49:48.534Z,21.77
2022-12-18T07:52:15.202Z,19.95
2022-12-18T07:54:41.914Z,19.58
2022-12-18T07:57:16.424Z,21.33
2022-12-18T07:59:55.198Z,22.55
2022-12-18T08:02:21.634Z,18.17
2022-12-18T08:04:48.202Z,20.50
2022-12-18T08:07:14.550Z,21.80
2022-12-18T08:09:40.969Z,22.88
2022-12-18T08:12:07.426Z,20.13
2022-12-18T08:14:33.754Z,18.85
2022-12-18T08:17:00.215Z,21.75
2022-12-18T08:19:26.828Z,20.95
2022-12-18T08:21:53.189Z,21.90
2022-12-18T08:24:19.552Z,19.42
2022-12-18T08:27:01.081Z,25.00
2022-12-18T08:29:32.981Z,19.48
2022-12-18T08:31:59.565Z,22.08
2022-12-18T08:34:26.011Z,25.60
2022-12-18T08:36:52.368Z,25.90
2022-12-18T08:39:19.298Z,23.00
2022-12-18T08:42:10.218Z,23.33
2022-12-18T08:44:39.843Z,19.45
2022-12-18T08:47:07.639Z,20.08
2022-12-18T08:49:35.642Z,23.95
2022-12-18T08:52:03.787Z,24.52
2022-12-18T08:54:30.682Z,24.65
2022-12-18T08:56:57.028Z,28.15
2022-12-18T08:59:24.472Z,24.35
2022-12-18T09:01:51.018Z,26.88
2022-12-18T09:04:18.156Z,28.38
2022-12-18T09:06:44.694Z,25.85
2022-12-18T09:09:11.443Z,28.92
2022-12-18T09:11:38.031Z,30.55
2022-12-18T09:14:06.562Z,28.05
2022-12-18T09:16:35.753Z,21.35
2022-12-18T09:19:05.285Z,25.45
2022-12-18T09:21:35.864Z,22.63
2022-12-18T09:24:04.344Z,27.08
2022-12-18T09:26:33.291Z,25.10
2022-12-18T09:28:59.924Z,22.63
2022-12-18T09:31:26.457Z,25.80
2022-12-18T09:33:53.127Z,25.63
2022-12-18T09:36:20.041Z,22.33
2022-12-18T09:38:48.637Z,20.55
2022-12-18T09:41:44.371Z,24.00
2022-12-18T09:44:30.715Z,25.38
2022-12-18T09:47:19.445Z,22.60
2022-12-18T09:49:49.790Z,22.08
2022-12-18T09:52:36.759Z,22.08
2022-12-18T09:55:22.099Z,20.48
2022-12-18T09:58:05.529Z,18.60
2022-12-18T10:00:33.371Z,18.98
2022-12-18T10:03:04.461Z,21.95
2022-12-18T10:06:02.987Z,20.75
2022-12-18T10:08:38.559Z,17.83
2022-12-18T10:11:20.908Z,19.88
2022-12-18T10:13:53.487Z,18.05
2022-12-18T10:16:43.359Z,18.33
2022-12-18T10:19:36.210Z,21.25
2022-12-18T10:22:22.208Z,15.10
2022-12-18T10:25:00.980Z,17.55
2022-12-18T10:27:29.500Z,17.98
2022-12-18T10:29:56.849Z,19.20
2022-12-18T10:32:26.742Z,19.98
2022-12-18T10:35:00.162Z,20.60
2022-12-18T10:37:29.944Z,17.55
2022-12-18T10:40:21.798Z,18.73
2022-12-18T10:43:04.957Z,19.45
2022-12-18T10:45:31.362Z,17.30
2022-12-18T10:47:58.080Z,23.48
2022-12-18T10:51:08.617Z,16.30
2022-12-18T10:53:31.916Z,16.45
2022-12-18T10:56:03.140Z,21.55
2022-12-18T10:58:32.520Z,20.13
2022-12-18T11:01:17.124Z,18.67
2022-12-18T11:03:45.380Z,19.75
2022-12-18T11:06:22.681Z,18.95
2022-12-18T11:09:13.231Z,16.33
2022-12-18T11:11:41.195Z,18.50
2022-12-18T11:14:22.579Z,17.88
2022-12-18T11:17:24.179Z,20.08
2022-12-18T11:19:41.967Z,16.73
2022-12-18T11:22:24.275Z,16.98
2022-12-18T11:25:30.871Z,16.92
2022-12-18T11:27:52.239Z,18.65
2022-12-18T11:30:29.895Z,18.42
2022-12-18T11:35:51.604Z,17.58
2022-12-18T11:38:27.862Z,18.45
2022-12-18T11:41:03.063Z,17.60
2022-12-18T11:43:53.937Z,17.63
2022-12-18T11:46:35.784Z,17.92
2022-12-18T11:49:09.571Z,18.40
2022-12-18T11:51:49.711Z,19.95
2022-12-18T11:54:17.167Z,20.85
2022-12-18T11:56:59.289Z,18.02
2022-12-18T12:00:03.378Z,16.98
2022-12-18T12:02:55.962Z,18.70
2022-12-18T12:05:39.051Z,15.95
2022-12-18T12:08:27.279Z,16.00
2022-12-18T12:11:16.818Z,15.88
2022-12-18T12:13:50.340Z,21.98
2022-12-18T12:16:26.077Z,17.45
2022-12-18T12:19:14.167Z,15.38
2022-12-18T12:21:43.110Z,21.10
2022-12-18T12:24:36.223Z,16.20
2022-12-18T12:27:31.409Z,18.05
2022-12-18T12:30:12.765Z,18.73
2022-12-18T12:32:45.069Z,17.30
2022-12-18T12:35:38.729Z,15.90
2022-12-18T12:38:05.072Z,18.80
2022-12-18T12:40:57.068Z,14.65
2022-12-18T12:43:27.668Z,16.55
2022-12-18T12:46:09.600Z,17.70
2022-12-18T12:48:49.397Z,18.02
2022-12-18T12:51:23.590Z,17.75
2022-12-18T12:53:51.102Z,10.93
2022-12-18T12:56:22.236Z,19.65
2022-12-18T12:59:23.524Z,17.13
2022-12-18T13:02:00.704Z,18.98
2022-12-18T13:04:45.469Z,17.13
2022-12-18T13:07:24.272Z,17.00
2022-12-18T13:10:13.507Z,18.88
2022-12-18T13:13:03.251Z,17.67
2022-12-18T13:15:40.845Z,19.15
2022-12-18T13:18:10.369Z,17.38
2022-12-18T13:20:40.216Z,19.50
2022-12-18T13:23:24.758Z,20.23
2022-12-18T13:25:55.583Z,19.27
2022-12-18T13:28:34.571Z,16.83
2022-12-18T13:31:02.973Z,19.13
2022-12-18T13:33:29.646Z,20.70
2022-12-18T13:36:26.409Z,19.17
2022-12-18T13:39:16.452Z,17.33
2022-12-18T13:42:12.283Z,18.17
2022-12-18T13:44:41.875Z,18.05
2022-12-18T13:47:29.361Z,19.73
2022-12-18T13:49:57.077Z,21.15
2022-12-18T13:52:27.105Z,19.83
2022-12-18T13:54:55.894Z,20.55
2022-12-18T13:57:32.984Z,19.80
2022-12-18T14:00:25.485Z,17.48
2022-12-18T14:02:53.000Z,20.42
2022-12-18T14:05:32.881Z,21.33
2022-12-18T14:08:11.924Z,20.42
2022-12-18T14:10:49.969Z,19.35
2022-12-18T14:13:24.209Z,21.02
2022-12-18T14:15:51.346Z,20.52
2022-12-18T14:18:26.261Z,22.00
2022-12-18T14:20:57.744Z,19.23
2022-12-18T14:23:40.322Z,18.38
2022-12-18T14:26:29.982Z,19.90
2022-12-18T14:29:19.486Z,22.45
2022-12-18T14:34:17.138Z,19.92
2022-12-18T14:36:54.213Z,21.77
2022-12-18T14:39:21.750Z,19.60
2022-12-18T14:41:52.595Z,18.85
2022-12-18T14:44:18.951Z,18.45
2022-12-18T14:46:50.333Z,14.43
2022-12-18T14:49:27.958Z,18.85
2022-12-18T14:51:57.472Z,18.52
2022-12-18T14:54:25.836Z,16.20
2022-12-18T14:57:00.940Z,20.13
2022-12-18T14:59:29.203Z,22.70
2022-12-18T15:02:09.480Z,20.45
2022-12-18T15:04:42.478Z,20.15
2022-12-18T15:07:20.666Z,19.30
2022-12-18T15:10:05.079Z,19.33
2022-12-18T15:12:37.871Z,20.65
2022-12-18T15:15:05.860Z,20.20
2022-12-18T15:17:32.500Z,20.33
2022-12-18T15:20:05.010Z,22.80
2022-12-18T15:22:35.976Z,22.17
2022-12-18T15:25:04.561Z,21.95
2022-12-18T15:27:35.895Z,21.98
2022-12-18T15:32:37.417Z,23.13
2022-12-18T15:35:10.355Z,20.05
2022-12-18T15:37:36.733Z,25.17
2022-12-18T15:40:04.000Z,17.77
2022-12-18T15:42:49.499Z,19.50
2022-12-18T15:45:16.570Z,20.60
2022-12-18T15:47:45.199Z,20.52
2022-12-18T15:50:11.724Z,23.10
2022-12-18T15:52:42.924Z,22.00
2022-12-18T15:55:39.742Z,19.60
2022-12-18T15:58:08.386Z,21.02
2022-12-18T16:00:37.528Z,19.67
2022-12-18T16:03:05.189Z,24.13
2022-12-18T16:05:32.620Z,22.10
2022-12-18T16:07:59.300Z,21.83
2022-12-18T16:10:27.132Z,25.30
2022-12-18T16:12:53.785Z,22.65
2022-12-18T16:15:24.511Z,22.33
2022-12-18T16:20:21.978Z,23.38
2022-12-18T16:22:50.204Z,23.77
2022-12-18T16:25:22.237Z,21.05
2022-12-18T16:27:49.364Z,23.85
2022-12-18T16:30:18.932Z,22.13
2022-12-18T16:32:45.579Z,23.67
2022-12-18T16:35:14.239Z,23.17
2022-12-18T16:37:45.852Z,21.17
2022-12-18T16:40:14.863Z,23.88
2022-12-18T16:42:43.445Z,23.83
2022-12-18T16:45:12.544Z,22.15
2022-12-18T16:47:39.387Z,24.42
2022-12-18T16:50:06.998Z,24.38
2022-12-18T16:52:33.568Z,21.48
2022-12-18T16:55:00.100Z,24.33
2022-12-18T16:57:26.903Z,23.27
2022-12-18T16:59:53.779Z,22.48
2022-12-18T17:02:24.117Z,26.58
2022-12-18T17:04:54.169Z,23.50
2022-12-18T17:07:23.930Z,24.98
2022-12-18T17:09:51.157Z,24.40
2022-12-18T17:12:18.150Z,23.27
2022-12-18T17:14:45.096Z,25.38
2022-12-18T17:17:26.927Z,25.45
2022-12-18T17:19:53.503Z,23.13
2022-12-18T17:22:21.644Z,26.08
2022-12-18T17:24:48.081Z,25.98
2022-12-18T17:27:15.273Z,23.70
2022-12-18T17:29:47.273Z,28.40
2022-12-18T17:32:15.716Z,24.40
2022-12-18T17:34:42.160Z,25.17
2022-12-18T17:37:09.091Z,26.80
2022-12-18T17:39:35.632Z,24.45
2022-12-18T17:42:02.134Z,32.53
2022-12-18T17:44:28.675Z,28.30
2022-12-18T17:46:55.377Z,25.35
2022-12-18T17:49:21.992Z,26.40
2022-12-18T17:51:48.827Z,25.33
2022-12-18T17:54:15.308Z,28.02
2022-12-18T17:56:41.777Z,25.25
2022-12-18T17:59:08.249Z,28.02
2022-12-18T18:01:38.445Z,25.88
2022-12-18T18:04:09.071Z,30.15
2022-12-18T18:06:38.694Z,29.23
2022-12-18T18:09:06.641Z,31.70
2022-12-18T18:11:56.492Z,27.83
2022-12-18T18:14:23.163Z,28.60
2022-12-18T18:16:52.509Z,33.75
2022-12-18T18:19:24.100Z,31.48
2022-12-18T18:21:52.206Z,29.70
2022-12-18T18:24:20.881Z,27.55
2022-12-18T18:26:47.329Z,24.70
2022-12-18T18:29:20.092Z,26.33
2022-12-18T18:31:46.775Z,29.95
2022-12-18T18:34:20.491Z,27.35
2022-12-18T18:36:46.920Z,28.48
2022-12-18T18:39:14.193Z,27.67
2022-12-18T18:41:47.737Z,23.15
2022-12-18T18:44:15.943Z,26.85
2022-12-18T18:46:42.416Z,28.05
2022-12-18T18:49:09.657Z,24.73
2022-12-18T18:51:36.165Z,29.00
2022-12-18T18:54:02.821Z,25.80
2022-12-18T18:59:17.083Z,26.33
2022-12-18T19:01:44.098Z,26.50
2022-12-18T19:04:10.876Z,23.30
2022-12-18T19:06:37.304Z,27.52
2022-12-18T19:09:04.906Z,29.58
2022-12-18T19:11:49.772Z,32.10
2022-12-18T19:14:16.725Z,30.00
2022-12-18T19:16:45.363Z,25.92
2022-12-18T19:19:12.939Z,24.80
2022-12-18T19:21:39.720Z,29.00
2022-12-18T19:24:06.621Z,24.17
2022-12-18T19:26:35.846Z,29.05
2022-12-18T19:29:09.139Z,27.42
2022-12-18T19:31:37.328Z,25.20
2022-12-18T19:34:06.973Z,27.52
2022-12-18T19:36:35.576Z,27.45
2022-12-18T19:39:07.393Z,24.85
2022-12-18T19:41:34.036Z,25.85
2022-12-18T19:44:07.444Z,31.83
2022-12-18T19:46:34.605Z,26.65
2022-12-18T19:49:01.084Z,27.08
2022-12-18T19:51:29.648Z,31.80
2022-12-18T19:53:59.402Z,31.73
2022-12-18T19:56:29.134Z,30.98
2022-12-18T19:58:55.670Z,37.05
2022-12-18T20:01:23.653Z,32.22
2022-12-18T20:03:51.694Z,31.92
2022-12-18T20:06:31.517Z,27.55
2022-12-18T20:09:01.544Z,29.92
2022-12-18T20:11:32.086Z,26.23
2022-12-18T20:14:01.447Z,33.75
2022-12-18T20:16:28.006Z,34.70
2022-12-18T20:18:54.817Z,27.92
2022-12-18T20:21:21.494Z,26.23
2022-12-18T20:23:47.911Z,29.25
2022-12-18T20:26:14.399Z,33.33
2022-12-18T20:28:40.910Z,24.75
2022-12-18T20:31:08.375Z,40.67
2022-12-18T20:33:37.167Z,34.75
2022-12-18T20:36:06.538Z,30.65
2022-12-18T20:38:35.343Z,37.22
2022-12-18T20:41:06.600Z,33.00
2022-12-18T20:43:33.064Z,33.35
2022-12-18T20:46:10.845Z,28.30
2022-12-18T20:48:37.274Z,29.45
2022-12-18T20:51:09.090Z,33.63
2022-12-18T20:53:36.138Z,31.38
2022-12-18T20:56:08.768Z,37.22
2022-12-18T20:58:36.058Z,29.85
2022-12-18T21:01:09.585Z,24.92
2022-12-18T21:03:36.515Z,34.78
2022-12-18T21:06:03.479Z,30.55
2022-12-18T21:08:29.987Z,31.13
2022-12-18T21:10:56.448Z,24.17
2022-12-18T21:13:23.690Z,32.50
2022-12-18T21:15:54.034Z,29.98
2022-12-18T21:18:20.618Z,27.88
2022-12-18T21:20:47.254Z,33.47
2022-12-18T21:23:16.323Z,31.45
2022-12-18T21:25:44.011Z,28.20
2022-12-18T21:28:12.233Z,31.40
2022-12-18T21:30:38.821Z,34.55
2022-12-18T21:33:05.311Z,35.63
2022-12-18T21:35:32.120Z,37.50
2022-12-18T21:37:58.642Z,29.40
2022-12-18T21:40:25.207Z,31.65
2022-12-18T21:43:10.559Z,19.95
2022-12-18T21:45:41.359Z,30.42
2022-12-18T21:48:07.751Z,34.03
2022-12-18T21:50:34.202Z,28.70
2022-12-18T21:53:00.649Z,31.85
2022-12-18T21:55:27.064Z,35.72
2022-12-18T21:57:54.698Z,32.97
2022-12-18T22:00:21.551Z,30.25
2022-12-18T22:02:49.639Z,32.90
2022-12-18T22:05:32.283Z,37.08
2022-12-18T22:07:58.751Z,30.33
2022-12-18T22:10:25.150Z,31.80
2022-12-18T22:12:54.815Z,33.63
2022-12-18T22:15:22.053Z,29.85
2022-12-18T22:17:54.149Z,35.75
2022-12-18T22:20:26.863Z,30.27
2022-12-18T22:22:53.492Z,37.70
2022-12-18T22:25:19.990Z,30.35
2022-12-18T22:28:06.488Z,35.92
2022-12-18T22:30:33.050Z,33.15
2022-12-18T22:32:59.635Z,32.78
2022-12-18T22:35:26.141Z,33.53
2022-12-18T22:37:52.736Z,35.05
2022-12-18T22:40:24.656Z,25.33
2022-12-18T22:42:53.030Z,27.50
2022-12-18T22:45:22.814Z,30.63
2022-12-18T22:47:49.386Z,40.55
2022-12-18T22:50:15.963Z,36.85
2022-12-18T22:52:42.702Z,34.55
2022-12-18T22:55:09.469Z,27.58
2022-12-18T22:57:36.183Z,34.13
2022-12-18T23:00:05.554Z,33.05
2022-12-18T23:02:33.318Z,33.30
2022-12-18T23:04:59.861Z,44.92
2022-12-18T23:07:28.662Z,17.65
2022-12-18T23:10:00.740Z,35.28
2022-12-18T23:12:27.722Z,37.53
2022-12-18T23:14:54.605Z,39.25
2022-12-18T23:17:21.179Z,35.70
2022-12-18T23:19:51.124Z,34.28
2022-12-18T23:22:17.725Z,42.88
2022-12-18T23:24:44.365Z,33.83
2022-12-18T23:27:11.784Z,36.75
2022-12-18T23:29:39.167Z,36.30
2022-12-18T23:32:05.676Z,33.80
2022-12-18T23:34:32.188Z,38.78
2022-12-18T23:36:58.755Z,35.38
2022-12-18T23:39:29.831Z,23.88
2022-12-18T23:41:58.200Z,31.75
2022-12-18T23:44:25.097Z,39.78
2022-12-18T23:46:51.579Z,39.25
2022-12-18T23:49:18.117Z,33.67
2022-12-18T23:51:44.528Z,43.08
2022-12-18T23:54:11.101Z,44.42
2022-12-18T23:56:37.669Z,38.85
2022-12-18T23:59:04.307Z,36.42
